Time;durP1;ratioP1;P1;durP2;ratioP2;P2;SDS_P1;SDS_P2;PMS_P1;PMS_P2;Temp;Humidity;BMP_temperature;BMP_pressure;BME280_temperature;BME280_humidity;BME280_pressure;Samples;Min_cycle;Max_cycle;Signal;HPM_P1;HPM_P2
2021/07/20 00:00:01;;;;;;;16.10;13.93;;;;;;;;;;5110916;28;20448;-75
2021/07/20 00:02:32;;;;;;;21.43;13.80;;;;;;;;;;5111102;28;20542;-75
2021/07/20 00:04:59;;;;;;;16.27;13.77;;;;;;;;;;5110501;28;20506;-75
2021/07/20 00:07:26;;;;;;;19.73;15.13;;;;;;;;;;5111396;28;20436;-75
2021/07/20 00:09:53;;;;;;;18.90;13.70;;;;;;;;;;5111438;28;20446;-75
2021/07/20 00:12:20;;;;;;;18.50;14.97;;;;;;;;;;5111168;28;20446;-75
2021/07/20 00:14:47;;;;;;;18.07;14.03;;;;;;;;;;5110865;28;20523;-75
2021/07/20 00:17:17;;;;;;;15.20;13.60;;;;;;;;;;5110811;28;20471;-75
2021/07/20 00:19:44;;;;;;;18.40;15.30;;;;;;;;;;5111297;28;20443;-75
2021/07/20 00:22:12;;;;;;;18.60;15.53;;;;;;;;;;5110407;28;20439;-74
2021/07/20 00:24:39;;;;;;;16.90;13.47;;;;;;;;;;5110956;28;20448;-75
2021/07/20 00:27:06;;;;;;;18.23;13.73;;;;;;;;;;5110539;28;20812;-75
2021/07/20 00:29:33;;;;;;;18.00;15.43;;;;;;;;;;5111263;28;21011;-75
2021/07/20 00:32:00;;;;;;;19.77;15.10;;;;;;;;;;5107952;28;20452;-75
2021/07/20 00:34:29;;;;;;;18.50;14.70;;;;;;;;;;5110036;28;20436;-74
2021/07/20 00:36:56;;;;;;;18.53;14.47;;;;;;;;;;5111053;28;20479;-74
2021/07/20 00:39:23;;;;;;;19.13;15.17;;;;;;;;;;5110888;28;20451;-75
2021/07/20 00:41:51;;;;;;;16.10;13.93;;;;;;;;;;5110726;28;20522;-75
2021/07/20 00:44:19;;;;;;;16.90;13.80;;;;;;;;;;5110624;28;20452;-75
2021/07/20 00:46:46;;;;;;;19.43;15.30;;;;;;;;;;5110496;28;20505;-74
2021/07/20 00:49:13;;;;;;;18.73;14.77;;;;;;;;;;5110388;28;20450;-74
2021/07/20 00:51:42;;;;;;;17.00;13.57;;;;;;;;;;5110932;28;20439;-74
2021/07/20 00:54:09;;;;;;;17.47;14.73;;;;;;;;;;5110762;28;20435;-75
2021/07/20 00:56:36;;;;;;;18.40;14.67;;;;;;;;;;5109882;28;20980;-75
2021/07/20 00:59:04;;;;;;;21.00;14.63;;;;;;;;;;5110683;28;20824;-75
2021/07/20 01:01:31;;;;;;;17.30;12.83;;;;;;;;;;5110645;28;20534;-75
2021/07/20 01:03:58;;;;;;;17.93;13.70;;;;;;;;;;5110971;28;20440;-75
2021/07/20 01:06:25;;;;;;;17.03;13.10;;;;;;;;;;5110564;28;20539;-75
2021/07/20 01:08:55;;;;;;;16.57;14.77;;;;;;;;;;5110736;28;20880;-75
2021/07/20 01:11:25;;;;;;;20.43;14.83;;;;;;;;;;5109867;28;20444;-75
2021/07/20 01:13:52;;;;;;;18.07;15.10;;;;;;;;;;5102771;28;20448;-75
2021/07/20 01:16:20;;;;;;;19.77;14.07;;;;;;;;;;5113045;28;20475;-75
2021/07/20 01:18:48;;;;;;;15.40;13.60;;;;;;;;;;5115017;28;20530;-75
2021/07/20 01:21:15;;;;;;;20.00;14.20;;;;;;;;;;5113861;28;20526;-75
2021/07/20 01:23:46;;;;;;;17.37;13.90;;;;;;;;;;5115021;28;20519;-74
2021/07/20 01:26:13;;;;;;;16.23;12.57;;;;;;;;;;5114259;28;20506;-75
2021/07/20 01:28:41;;;;;;;17.17;13.23;;;;;;;;;;5114678;28;20522;-75
2021/07/20 01:31:10;;;;;;;18.10;14.17;;;;;;;;;;5114338;28;20455;-75
2021/07/20 01:33:39;;;;;;;16.90;12.87;;;;;;;;;;5114782;28;20518;-75
2021/07/20 01:36:07;;;;;;;17.33;13.57;;;;;;;;;;5113956;27;20574;-75
2021/07/20 01:38:35;;;;;;;14.10;12.70;;;;;;;;;;5114005;28;20439;-75
2021/07/20 01:41:06;;;;;;;20.07;13.97;;;;;;;;;;5113590;28;20450;-74
2021/07/20 01:43:34;;;;;;;17.00;13.30;;;;;;;;;;5114852;28;20477;-74
2021/07/20 01:46:02;;;;;;;18.27;13.23;;;;;;;;;;5113050;28;20439;-74
2021/07/20 01:48:30;;;;;;;17.83;13.30;;;;;;;;;;5114198;28;20446;-75
2021/07/20 01:50:58;;;;;;;17.30;14.03;;;;;;;;;;5113739;28;20530;-75
2021/07/20 01:53:25;;;;;;;18.20;13.23;;;;;;;;;;5113933;28;20498;-74
2021/07/20 01:55:52;;;;;;;14.80;12.13;;;;;;;;;;5113274;27;20475;-74
2021/07/20 01:58:20;;;;;;;16.67;14.00;;;;;;;;;;5113133;28;20446;-74
2021/07/20 02:00:48;;;;;;;17.40;12.40;;;;;;;;;;5113722;27;20448;-75
2021/07/20 02:03:23;;;;;;;20.40;14.40;;;;;;;;;;5113668;28;20454;-74
2021/07/20 02:08:37;;;;;;;19.67;14.80;;;;;;;;;;5113852;28;21000;-74
2021/07/20 02:11:05;;;;;;;17.70;13.40;;;;;;;;;;5112772;28;20439;-76
2021/07/20 02:13:40;;;;;;;20.20;14.00;;;;;;;;;;5113937;28;20482;-76
2021/07/20 02:16:08;;;;;;;16.80;13.10;;;;;;;;;;5113110;28;20519;-76
2021/07/20 02:18:35;;;;;;;16.73;13.03;;;;;;;;;;5113859;28;20472;-75
2021/07/20 02:21:05;;;;;;;18.53;13.23;;;;;;;;;;5112059;28;20458;-76
2021/07/20 02:23:32;;;;;;;16.43;13.07;;;;;;;;;;5113743;28;20431;-76
2021/07/20 02:26:00;;;;;;;19.83;14.10;;;;;;;;;;5110498;28;20443;-75
2021/07/20 02:28:27;;;;;;;18.07;12.93;;;;;;;;;;5112301;28;20522;-76
2021/07/20 02:30:57;;;;;;;18.77;13.20;;;;;;;;;;5113331;28;20440;-76
2021/07/20 02:33:24;;;;;;;15.27;13.03;;;;;;;;;;5113605;28;20443;-74
2021/07/20 02:35:52;;;;;;;15.63;13.00;;;;;;;;;;5112710;28;20448;-74
2021/07/20 02:38:19;;;;;;;14.87;13.23;;;;;;;;;;5112840;28;21170;-74
2021/07/20 02:40:47;;;;;;;18.07;13.67;;;;;;;;;;5112972;28;20436;-74
2021/07/20 02:43:15;;;;;;;15.63;13.10;;;;;;;;;;5113077;28;20439;-74
2021/07/20 02:45:43;;;;;;;16.80;12.90;;;;;;;;;;5113015;28;20443;-74
2021/07/20 02:48:12;;;;;;;18.10;13.10;;;;;;;;;;5112850;28;20440;-74
2021/07/20 02:50:40;;;;;;;15.87;13.07;;;;;;;;;;5112335;28;20452;-74
2021/07/20 02:53:08;;;;;;;16.70;12.73;;;;;;;;;;5112036;28;20512;-74
2021/07/20 02:55:37;;;;;;;13.67;12.20;;;;;;;;;;5112296;28;20512;-74
2021/07/20 02:58:05;;;;;;;14.30;11.80;;;;;;;;;;5112078;28;21005;-74
2021/07/20 03:00:33;;;;;;;17.40;12.50;;;;;;;;;;5112383;28;20450;-74
2021/07/20 03:03:00;;;;;;;15.73;12.30;;;;;;;;;;5112555;28;20998;-74
2021/07/20 03:05:28;;;;;;;16.97;13.40;;;;;;;;;;5112365;28;20552;-74
2021/07/20 03:07:57;;;;;;;18.60;11.97;;;;;;;;;;5112606;28;20877;-75
2021/07/20 03:10:26;;;;;;;17.00;13.87;;;;;;;;;;5112625;28;20463;-76
2021/07/20 03:12:55;;;;;;;19.30;13.50;;;;;;;;;;5112368;28;20470;-75
2021/07/20 03:15:23;;;;;;;15.87;13.13;;;;;;;;;;5109902;28;20820;-74
2021/07/20 03:17:50;;;;;;;19.17;13.50;;;;;;;;;;5103694;28;20555;-75
2021/07/20 03:20:18;;;;;;;15.67;12.80;;;;;;;;;;5092061;28;20472;-75
2021/07/20 03:22:46;;;;;;;18.63;13.07;;;;;;;;;;5092289;28;20539;-75
2021/07/20 03:25:15;;;;;;;15.70;12.67;;;;;;;;;;5092766;28;20468;-75
2021/07/20 03:27:43;;;;;;;17.97;12.33;;;;;;;;;;5104874;28;20501;-75
2021/07/20 03:30:12;;;;;;;17.10;12.80;;;;;;;;;;5111928;28;20493;-75
2021/07/20 03:32:44;;;;;;;16.63;10.83;;;;;;;;;;5103699;28;20939;-74
2021/07/20 03:35:13;;;;;;;18.77;14.17;;;;;;;;;;5110826;28;20440;-75
2021/07/20 03:37:40;;;;;;;17.97;13.43;;;;;;;;;;5091563;28;20486;-75
2021/07/20 03:40:10;;;;;;;17.33;13.53;;;;;;;;;;5091406;28;20945;-75
2021/07/20 03:42:37;;;;;;;19.90;13.50;;;;;;;;;;5111665;28;20965;-74
2021/07/20 03:45:05;;;;;;;17.60;12.80;;;;;;;;;;5111628;28;20442;-74
2021/07/20 03:47:32;;;;;;;17.40;12.90;;;;;;;;;;5116783;28;20493;-75
2021/07/20 03:50:00;;;;;;;16.77;13.03;;;;;;;;;;5117401;28;20514;-75
2021/07/20 03:52:29;;;;;;;15.30;12.73;;;;;;;;;;5110439;28;20532;-75
2021/07/20 03:54:56;;;;;;;19.00;14.10;;;;;;;;;;5112245;28;20447;-74
2021/07/20 03:57:26;;;;;;;17.53;13.43;;;;;;;;;;5093643;28;20472;-75
2021/07/20 03:59:55;;;;;;;20.20;13.43;;;;;;;;;;5105867;28;20443;-75
2021/07/20 04:02:23;;;;;;;17.73;13.50;;;;;;;;;;5111004;28;20451;-75
2021/07/20 04:04:51;;;;;;;20.10;14.23;;;;;;;;;;5111366;28;20464;-75
2021/07/20 04:07:19;;;;;;;15.47;13.27;;;;;;;;;;5111373;28;20927;-75
2021/07/20 04:09:48;;;;;;;17.77;13.53;;;;;;;;;;5100131;28;20808;-73
2021/07/20 04:12:16;;;;;;;21.60;14.10;;;;;;;;;;5109836;28;20522;-75
2021/07/20 04:14:45;;;;;;;14.90;11.37;;;;;;;;;;5110976;28;20471;-74
2021/07/20 04:17:14;;;;;;;16.93;12.70;;;;;;;;;;5102105;28;20838;-74
2021/07/20 04:19:41;;;;;;;14.37;11.00;;;;;;;;;;5111411;28;20435;-75
2021/07/20 04:22:09;;;;;;;15.83;12.33;;;;;;;;;;5110653;28;20803;-74
2021/07/20 04:24:36;;;;;;;17.87;11.83;;;;;;;;;;5111540;28;20440;-75
2021/07/20 04:27:04;;;;;;;16.40;11.90;;;;;;;;;;5110766;28;20439;-77
2021/07/20 04:29:31;;;;;;;16.57;12.70;;;;;;;;;;5111430;28;20753;-74
2021/07/20 04:32:02;;;;;;;14.50;11.23;;;;;;;;;;5110493;28;20935;-75
2021/07/20 04:34:30;;;;;;;17.90;11.90;;;;;;;;;;5111417;28;20519;-74
2021/07/20 04:36:57;;;;;;;14.83;11.73;;;;;;;;;;5111050;28;20477;-73
2021/07/20 04:39:24;;;;;;;14.40;11.80;;;;;;;;;;5110255;28;20482;-78
2021/07/20 04:41:51;;;;;;;18.50;12.43;;;;;;;;;;5111523;28;20515;-79
2021/07/20 04:44:19;;;;;;;13.13;10.63;;;;;;;;;;5098150;28;20728;-74
2021/07/20 04:46:47;;;;;;;15.37;11.90;;;;;;;;;;5111379;28;20523;-78
2021/07/20 04:49:16;;;;;;;14.87;11.10;;;;;;;;;;5110449;28;20820;-75
2021/07/20 04:51:45;;;;;;;14.60;11.43;;;;;;;;;;5114441;28;20508;-74
2021/07/20 04:54:13;;;;;;;12.93;11.10;;;;;;;;;;5114776;28;20447;-75
2021/07/20 04:56:40;;;;;;;14.23;11.00;;;;;;;;;;5115126;28;20530;-75
2021/07/20 04:59:07;;;;;;;12.67;10.80;;;;;;;;;;5114366;28;20550;-75
2021/07/20 05:01:35;;;;;;;15.93;11.10;;;;;;;;;;5114989;28;20475;-75
2021/07/20 05:04:03;;;;;;;17.33;10.93;;;;;;;;;;5114456;28;20475;-75
2021/07/20 05:06:32;;;;;;;19.17;10.73;;;;;;;;;;5115202;28;20802;-75
2021/07/20 05:08:59;;;;;;;12.93;10.53;;;;;;;;;;5114507;28;20456;-76
2021/07/20 05:11:27;;;;;;;14.73;10.13;;;;;;;;;;5114998;27;20439;-75
2021/07/20 05:13:54;;;;;;;15.70;11.50;;;;;;;;;;5115091;28;20446;-76
2021/07/20 05:16:21;;;;;;;15.70;11.40;;;;;;;;;;5114810;28;20447;-74
2021/07/20 05:18:48;;;;;;;15.97;11.00;;;;;;;;;;5114883;28;20483;-74
2021/07/20 05:21:18;;;;;;;17.50;11.13;;;;;;;;;;5114709;28;20435;-75
2021/07/20 05:23:47;;;;;;;14.57;11.23;;;;;;;;;;5115183;28;20529;-75
2021/07/20 05:26:15;;;;;;;15.20;10.27;;;;;;;;;;5114736;28;21022;-75
2021/07/20 05:28:43;;;;;;;17.57;10.83;;;;;;;;;;5114674;27;20994;-75
2021/07/20 05:31:11;;;;;;;13.77;11.30;;;;;;;;;;5114346;28;20538;-75
2021/07/20 05:33:39;;;;;;;16.73;10.07;;;;;;;;;;5114618;28;20440;-74
2021/07/20 05:36:07;;;;;;;11.60;9.63;;;;;;;;;;5114561;28;20443;-74
2021/07/20 05:38:34;;;;;;;12.17;10.17;;;;;;;;;;5114612;28;20475;-75
2021/07/20 05:41:02;;;;;;;15.60;10.70;;;;;;;;;;5114414;28;20439;-75
2021/07/20 05:43:32;;;;;;;14.70;11.10;;;;;;;;;;5114599;28;20439;-75
2021/07/20 05:46:00;;;;;;;14.23;9.43;;;;;;;;;;5114107;28;20455;-76
2021/07/20 05:48:28;;;;;;;17.33;12.37;;;;;;;;;;5114749;28;20475;-75
2021/07/20 05:50:58;;;;;;;14.10;10.40;;;;;;;;;;5114236;28;20522;-75
2021/07/20 05:53:28;;;;;;;12.03;10.30;;;;;;;;;;5114382;28;20443;-75
2021/07/20 05:55:57;;;;;;;16.10;10.70;;;;;;;;;;5114510;28;20516;-75
2021/07/20 05:58:25;;;;;;;14.90;10.27;;;;;;;;;;5114393;28;20841;-75
2021/07/20 06:00:53;;;;;;;15.60;10.80;;;;;;;;;;5114015;28;20523;-75
2021/07/20 06:03:21;;;;;;;18.10;11.63;;;;;;;;;;5113522;28;20953;-75
2021/07/20 06:05:50;;;;;;;16.27;10.20;;;;;;;;;;5113781;28;20570;-75
2021/07/20 06:08:18;;;;;;;12.43;9.30;;;;;;;;;;5113832;28;20885;-75
2021/07/20 06:10:46;;;;;;;16.23;11.00;;;;;;;;;;5113919;28;20523;-75
2021/07/20 06:13:14;;;;;;;14.97;10.07;;;;;;;;;;5113439;27;20448;-75
2021/07/20 06:15:44;;;;;;;11.80;10.20;;;;;;;;;;5113927;28;20866;-75
2021/07/20 06:18:11;;;;;;;11.30;9.37;;;;;;;;;;5113598;28;20485;-75
2021/07/20 06:20:39;;;;;;;15.20;10.40;;;;;;;;;;5114242;28;20960;-75
2021/07/20 06:23:06;;;;;;;11.90;10.37;;;;;;;;;;5113299;28;20814;-75
2021/07/20 06:25:34;;;;;;;12.27;10.60;;;;;;;;;;5113599;28;20450;-75
2021/07/20 06:28:01;;;;;;;11.30;9.33;;;;;;;;;;5113217;28;20450;-75
2021/07/20 06:30:29;;;;;;;10.87;9.57;;;;;;;;;;5113605;28;20439;-75
2021/07/20 06:32:58;;;;;;;14.03;11.00;;;;;;;;;;5113732;28;20582;-75
2021/07/20 06:35:25;;;;;;;11.90;10.00;;;;;;;;;;5113501;28;20477;-75
2021/07/20 06:37:53;;;;;;;14.40;10.77;;;;;;;;;;5113926;28;20479;-75
2021/07/20 06:40:20;;;;;;;13.20;10.43;;;;;;;;;;5112782;28;20530;-75
2021/07/20 06:42:48;;;;;;;13.23;10.73;;;;;;;;;;5113600;28;20444;-75
2021/07/20 06:45:16;;;;;;;14.20;11.60;;;;;;;;;;5112820;28;20452;-75
2021/07/20 06:47:43;;;;;;;12.80;9.57;;;;;;;;;;5113271;28;20447;-75
2021/07/20 06:50:13;;;;;;;10.30;9.20;;;;;;;;;;5112820;28;20516;-75
2021/07/20 06:52:43;;;;;;;13.20;10.73;;;;;;;;;;5112830;28;20441;-75
2021/07/20 06:55:10;;;;;;;12.73;9.60;;;;;;;;;;5112585;28;20440;-74
2021/07/20 06:57:38;;;;;;;12.37;9.70;;;;;;;;;;5112905;28;20570;-75
2021/07/20 07:00:07;;;;;;;12.93;9.67;;;;;;;;;;5112699;28;20435;-75
2021/07/20 07:02:34;;;;;;;16.60;10.40;;;;;;;;;;5112627;28;20451;-76
2021/07/20 07:05:05;;;;;;;11.60;9.67;;;;;;;;;;5112612;28;21031;-75
2021/07/20 07:07:34;;;;;;;15.23;10.30;;;;;;;;;;5112934;28;20782;-75
2021/07/20 07:10:01;;;;;;;16.50;9.80;;;;;;;;;;5112473;28;20446;-75
2021/07/20 07:12:31;;;;;;;11.83;10.07;;;;;;;;;;5112246;28;20448;-75
2021/07/20 07:15:00;;;;;;;12.80;10.13;;;;;;;;;;5112770;28;20870;-75
2021/07/20 07:17:28;;;;;;;17.00;9.57;;;;;;;;;;5112686;28;20432;-75
2021/07/20 07:19:57;;;;;;;14.00;9.60;;;;;;;;;;5112345;28;20435;-75
2021/07/20 07:22:25;;;;;;;12.80;9.90;;;;;;;;;;5112318;28;20928;-75
2021/07/20 07:24:54;;;;;;;12.50;10.03;;;;;;;;;;5112849;28;20501;-75
2021/07/20 07:27:22;;;;;;;10.50;9.10;;;;;;;;;;5112314;28;20471;-76
2021/07/20 07:29:52;;;;;;;12.43;9.30;;;;;;;;;;5116725;28;21027;-75
2021/07/20 07:32:19;;;;;;;11.83;9.47;;;;;;;;;;5112487;28;20732;-75
2021/07/20 07:34:46;;;;;;;12.40;9.97;;;;;;;;;;5112655;28;20444;-75
2021/07/20 07:37:14;;;;;;;10.33;8.90;;;;;;;;;;5111966;28;20534;-75
2021/07/20 07:39:43;;;;;;;13.50;9.60;;;;;;;;;;5111891;28;20817;-75
2021/07/20 07:42:11;;;;;;;11.40;9.50;;;;;;;;;;5111706;28;20828;-75
2021/07/20 07:44:40;;;;;;;12.90;9.97;;;;;;;;;;5111752;28;20456;-75
2021/07/20 07:47:08;;;;;;;10.30;8.17;;;;;;;;;;5111127;28;20805;-75
2021/07/20 07:49:35;;;;;;;10.93;9.50;;;;;;;;;;5112088;28;20444;-75
2021/07/20 07:52:02;;;;;;;10.20;9.10;;;;;;;;;;5111119;28;20489;-75
2021/07/20 07:54:30;;;;;;;18.47;10.80;;;;;;;;;;5111889;28;20518;-75
2021/07/20 07:56:57;;;;;;;11.87;9.73;;;35.10;1.00;;;;;;5111485;28;20534;-75
2021/07/20 07:59:27;;;;;;;11.77;9.33;;;20.30;1.00;;;;;;5102506;28;20476;-75
2021/07/20 08:01:56;;;;;;;11.87;9.20;;;20.20;1.00;;;;;;5093847;28;20452;-75
2021/07/20 08:04:26;;;;;;;12.40;9.83;;;20.10;1.00;;;;;;5094159;28;20472;-75
2021/07/20 08:06:55;;;;;;;12.87;9.27;;;20.20;1.00;;;;;;5104297;28;20440;-75
2021/07/20 08:09:24;;;;;;;17.77;9.23;;;20.30;1.00;;;;;;5110804;28;20543;-75
2021/07/20 08:11:51;;;;;;;12.43;8.73;;;20.30;1.00;;;;;;5111164;28;20552;-75
2021/07/20 08:14:18;;;;;;;12.67;9.73;;;20.30;1.00;;;;;;5111189;28;20539;-75
2021/07/20 08:16:50;;;;;;;11.73;8.60;;;20.40;1.00;;;;;;5111326;28;20522;-75
2021/07/20 08:19:19;;;;;;;9.80;8.80;;;20.50;99.90;;;;;;5110991;28;20570;-75
2021/07/20 08:21:49;;;;;;;11.83;8.43;;;20.60;99.90;;;;;;5112083;28;20539;-75
2021/07/20 08:24:16;;;;;;;10.57;7.90;;;20.60;99.90;;;;;;5110669;28;20447;-75
2021/07/20 08:26:47;;;;;;;14.20;9.07;;;20.60;99.90;;;;;;5111334;28;20519;-75
2021/07/20 08:29:19;;;;;;;13.17;9.57;;;20.70;99.90;;;;;;5111361;28;20475;-75
2021/07/20 08:31:59;;;;;;;11.83;9.43;;;20.80;99.90;;;;;;5111446;28;20455;-75
2021/07/20 08:34:28;;;;;;;10.70;7.90;;;;;;;;;;5111570;28;20454;-75
2021/07/20 08:36:57;;;;;;;13.00;9.00;;;;;;;;;;5111200;28;20444;-75
2021/07/20 08:39:26;;;;;;;10.17;7.90;;;;;;;;;;5111219;28;20482;-75
2021/07/20 08:42:01;;;;;;;9.80;7.60;;;;;;;;;;5111305;28;20451;-75
2021/07/20 08:44:38;;;;;;;12.03;7.40;;;;;;;;;;5111296;28;20438;-75
2021/07/20 08:47:10;;;;;;;16.27;8.70;;;;;;;;;;5110925;28;20792;-75
2021/07/20 08:49:46;;;;;;;9.83;8.20;;;;;;;;;;5111255;28;20479;-75
2021/07/20 08:52:17;;;;;;;8.90;6.90;;;;;;;;;;5110974;28;20435;-75
2021/07/20 08:54:47;;;;;;;16.73;8.10;;;;;;;;;;5111421;28;20523;-75
2021/07/20 08:57:15;;;;;;;14.70;8.47;;;;;;;;;;5110789;28;20939;-75
2021/07/20 08:59:46;;;;;;;8.87;7.77;;;;;;;;;;5111159;28;20474;-75
2021/07/20 09:02:25;;;;;;;10.40;8.63;;;;;;;;;;5110997;28;20539;-75
2021/07/20 09:04:58;;;;;;;13.17;9.20;;;;;;;;;;5111045;28;20464;-75
2021/07/20 09:07:27;;;;;;;14.13;8.60;;;;;;;;;;5111196;28;20475;-75
2021/07/20 09:09:57;;;;;;;15.20;8.43;;;;;;;;;;5111092;28;20448;-75
2021/07/20 09:12:27;;;;;;;12.40;8.37;;;;;;;;;;5111438;28;20530;-76
2021/07/20 09:14:58;;;;;;;9.77;7.73;;;;;;;;;;5111166;28;20431;-75
2021/07/20 09:17:30;;;;;;;11.63;10.07;;;;;;;;;;5111231;28;20444;-75
2021/07/20 09:19:59;;;;;;;11.33;9.20;;;;;;;;;;5111053;28;20477;-74
2021/07/20 09:22:32;;;;;;;12.73;8.30;;;;;;;;;;5111091;28;20442;-74
2021/07/20 09:25:01;;;;;;;17.10;9.50;;;;;;;;;;5110363;28;20530;-75
2021/07/20 09:27:31;;;;;;;11.40;10.33;;;;;;;;;;5111596;28;20519;-76
2021/07/20 09:29:59;;;;;;;11.40;9.40;;;;;;;;;;5116532;28;20870;-75
2021/07/20 09:32:35;;;;;;;12.00;9.33;;;;;;;;;;5111684;28;20534;-75
2021/07/20 09:35:06;;;;;;;12.27;9.30;;;;;;;;;;5110288;28;20443;-75
2021/07/20 09:37:37;;;;;;;9.90;8.60;;;;;;;;;;5113931;28;20962;-75
2021/07/20 09:40:11;;;;;;;12.13;10.10;;;;;;;;;;5114297;28;20485;-75
2021/07/20 09:42:43;;;;;;;11.77;9.33;;;;;;;;;;5114611;27;20443;-75
2021/07/20 09:45:12;;;;;;;13.20;9.80;;;;;;;;;;5114242;28;20470;-75
2021/07/20 09:47:46;;;;;;;12.17;9.83;;;;;;;;;;5114271;28;20461;-75
2021/07/20 09:50:15;;;;;;;12.33;10.00;;;;;;;;;;5114019;28;20447;-75
2021/07/20 09:52:58;;;;;;;12.37;9.70;;;;;;;;;;5114427;28;20878;-75
2021/07/20 09:55:30;;;;;;;13.43;9.07;;;;;;;;;;5114305;28;20526;-75
2021/07/20 09:58:00;;;;;;;12.17;10.50;;;;;;;;;;5114179;28;20436;-75
2021/07/20 10:00:34;;;;;;;10.60;8.80;;;;;;;;;;5114111;28;20840;-75
2021/07/20 10:03:09;;;;;;;13.00;9.77;;;;;;;;;;5113699;28;20546;-75
2021/07/20 10:05:39;;;;;;;9.73;8.73;;;;;;;;;;5113895;28;20471;-75
2021/07/20 10:08:12;;;;;;;13.47;9.77;;;;;;;;;;5113623;28;20448;-75
2021/07/20 10:10:41;;;;;;;12.03;9.43;;;;;;;;;;5113795;28;20463;-75
2021/07/20 10:13:09;;;;;;;13.33;10.17;;;;;;;;;;5113631;28;20526;-75
2021/07/20 10:15:50;;;;;;;14.70;11.43;;;;;;;;;;5114087;28;20809;-75
2021/07/20 10:18:22;;;;;;;13.53;9.37;;;;;;;;;;5113468;28;20526;-75
2021/07/20 10:20:53;;;;;;;12.87;9.90;;;;;;;;;;5113778;28;20519;-75
2021/07/20 10:23:22;;;;;;;12.70;10.47;;;;;;;;;;5113204;28;20447;-75
2021/07/20 10:25:53;;;;;;;11.73;10.47;;;;;;;;;;5113891;28;20450;-75
2021/07/20 10:28:24;;;;;;;11.37;10.17;;;;;;;;;;5113673;28;20526;-75
2021/07/20 10:30:54;;;;;;;10.43;9.40;;;;;;;;;;5114211;28;20478;-75
2021/07/20 10:33:25;;;;;;;11.73;10.47;;;;;;;;;;5113209;28;20803;-74
2021/07/20 10:35:54;;;;;;;11.23;9.83;;;;;;;;;;5113835;28;20935;-74
2021/07/20 10:38:24;;;;;;;13.93;11.23;;;;;;;;;;5112972;28;20497;-74
2021/07/20 10:40:53;;;;;;;19.40;11.30;;;;;;;;;;5113451;28;20946;-76
2021/07/20 10:43:24;;;;;;;13.47;10.80;;;;;;;;;;5112785;28;20459;-76
2021/07/20 10:45:53;;;;;;;14.03;10.47;;;;;;;;;;5113451;28;20886;-76
2021/07/20 10:48:21;;;;;;;13.90;10.23;;;;;;;;;;5111637;28;20957;-76
2021/07/20 10:50:53;;;;;;;13.37;10.33;;;;;;;;;;5113733;28;20527;-76
2021/07/20 10:53:26;;;;;;;12.43;11.13;;;;;;;;;;5113007;28;20473;-76
2021/07/20 10:56:02;;;;;;;14.20;10.80;;;;;;;;;;5113331;28;20439;-76
2021/07/20 10:58:33;;;;;;;11.77;10.50;;;;;;;;;;5114589;28;20435;-75
2021/07/20 11:01:03;;;;;;;11.50;9.77;;;;;;;;;;5113692;28;20529;-74
2021/07/20 11:03:36;;;;;;;11.83;10.47;;;;;;;;;;5113319;28;20530;-75
2021/07/20 11:06:06;;;;;;;13.43;10.50;;;20.90;99.90;;;;;;5112409;28;20520;-75
2021/07/20 11:08:36;;;;;;;12.27;11.00;;;25.10;99.90;;;;;;5113087;28;20526;-76
2021/07/20 11:11:03;;;;;;;11.00;9.60;;;24.60;99.90;;;;;;5112229;28;20952;-75
2021/07/20 11:13:33;;;;;;;15.47;10.70;;;24.50;99.90;;;;;;5113811;28;20436;-76
2021/07/20 11:16:04;;;;;;;12.30;10.97;;;24.50;99.90;;;;;;5112708;28;20448;-75
2021/07/20 11:18:35;;;;;;;13.80;10.60;;;24.70;99.90;;;;;;5113028;28;20435;-76
2021/07/20 11:21:06;;;;;;;15.43;10.47;;;24.80;99.90;;;;;;5112961;28;20538;-76
2021/07/20 11:23:37;;;;;;;11.13;9.60;;;24.80;99.90;;;;;;5113597;28;20530;-76
2021/07/20 11:26:05;;;;;;;11.00;9.37;;;25.10;99.90;;;;;;5112757;28;20444;-75
2021/07/20 11:28:32;;;;;;;13.03;10.33;;;24.70;99.90;;;;;;5113494;28;20440;-75
2021/07/20 11:31:07;;;;;;;12.13;10.50;;;24.70;99.90;;;;;;5113039;27;21030;-75
2021/07/20 11:33:39;;;;;;;11.40;10.30;;;24.90;99.90;;;;;;5112667;27;20454;-75
2021/07/20 11:36:11;;;;;;;13.07;10.20;;;25.60;99.90;;;;;;5112003;28;20526;-75
2021/07/20 11:38:40;;;;;;;14.87;11.50;;;25.70;99.90;;;;;;5112477;28;20448;-75
2021/07/20 11:41:12;;;;;;;12.83;10.70;;;;;;;;;;5111827;28;20539;-75
2021/07/20 11:43:44;;;;;;;12.13;10.67;;;;;;;;;;5111802;28;20485;-75
2021/07/20 11:46:13;;;;;;;12.10;10.43;;;;;;;;;;5111711;28;20454;-76
2021/07/20 11:48:44;;;;;;;14.30;11.03;;;;;;;;;;5111953;28;20530;-75
2021/07/20 11:51:15;;;;;;;18.00;11.43;;;;;;;;;;5112870;28;20523;-75
2021/07/20 11:53:51;;;;;;;12.27;10.10;;;;;;;;;;5113830;28;20863;-75
2021/07/20 11:56:21;;;;;;;10.80;9.63;;;;;;;;;;5112630;28;20499;-76
2021/07/20 11:59:06;;;;;;;13.67;10.40;;;;;;;;;;5111897;28;20531;-76
2021/07/20 12:01:47;;;;;;;11.53;10.30;;;;;;;;;;5081667;28;20451;-75
2021/07/20 12:04:31;;;;;;;11.73;9.60;;;;;;;;;;5112687;28;20446;-75
2021/07/20 12:07:03;;;;;;;11.57;9.33;;;;;;;;;;5112678;28;20515;-75
2021/07/20 12:09:35;;;;;;;11.23;9.77;;;;;;;;;;5111614;28;20443;-75
2021/07/20 12:12:03;;;;;;;13.70;10.83;;;;;;;;;;5111250;28;20450;-75
2021/07/20 12:14:31;;;;;;;10.73;9.60;;;;;;;;;;5111822;28;20447;-75
2021/07/20 12:16:59;;;;;;;16.03;10.40;;;;;;;;;;5111635;28;20526;-75
2021/07/20 12:19:27;;;;;;;11.20;10.00;;;;;;;;;;5110971;28;20879;-75
2021/07/20 12:21:55;;;;;;;13.27;10.23;;;;;;;;;;5110900;28;20457;-75
2021/07/20 12:24:24;;;;;;;12.83;10.37;;;;;;;;;;5111009;28;20542;-75
2021/07/20 12:26:52;;;;;;;12.47;11.20;;;;;;;;;;5111172;28;20522;-75
2021/07/20 12:29:20;;;;;;;14.33;10.13;;;;;;;;;;5110520;28;20466;-75
2021/07/20 12:31:48;;;;;;;19.80;10.63;;;;;;;;;;5111104;28;20478;-75
2021/07/20 12:34:15;;;;;;;11.23;10.03;;;;;;;;;;5110694;28;20442;-75
2021/07/20 12:36:44;;;;;;;10.87;9.67;;;;;;;;;;5110827;28;20538;-75
2021/07/20 12:39:12;;;;;;;14.73;10.90;;;;;;;;;;5110511;28;20496;-76
2021/07/20 12:41:43;;;;;;;12.23;10.07;;;;;;;;;;5110825;28;20621;-74
2021/07/20 12:44:10;;;;;;;17.30;11.23;;;;;;;;;;5110375;28;20443;-75
2021/07/20 12:46:40;;;;;;;13.93;10.60;;;;;;;;;;5111061;28;20436;-75
2021/07/20 12:49:07;;;;;;;11.27;10.07;;;;;;;;;;5111567;28;20448;-75
2021/07/20 12:51:35;;;;;;;12.83;10.00;;;;;;;;;;5110912;28;20534;-75
2021/07/20 12:54:03;;;;;;;12.63;11.33;;;;;;;;;;5113376;28;20447;-74
2021/07/20 12:56:31;;;;;;;11.60;10.37;;;;;;;;;;5114713;28;20470;-75
2021/07/20 12:59:04;;;;;;;10.90;9.77;;;;;;;;;;5111107;28;20441;-75
2021/07/20 13:01:33;;;;;;;12.50;10.20;;;;;;;;;;5110914;28;20466;-75
2021/07/20 13:04:01;;;;;;;12.83;10.83;;;;;;;;;;5110684;28;20440;-75
2021/07/20 13:06:29;;;;;;;10.27;9.10;;;;;;;;;;5111448;28;20527;-75
2021/07/20 13:08:56;;;;;;;11.50;10.30;;;;;;;;;;5111847;28;20971;-75
2021/07/20 13:11:23;;;;;;;12.60;10.70;;;;;;;;;;5112834;28;20482;-75
2021/07/20 13:13:51;;;;;;;12.80;9.60;;;;;;;;;;5114876;28;20753;-76
2021/07/20 13:16:21;;;;;;;10.73;9.70;;;;;;;;;;5114390;28;20453;-76
2021/07/20 13:18:50;;;;;;;13.20;10.50;;;;;;;;;;5114524;28;20899;-76
2021/07/20 13:21:19;;;;;;;15.90;9.93;;;;;;;;;;5114500;28;20490;-76
2021/07/20 13:23:46;;;;;;;11.40;10.23;;;;;;;;;;5115378;28;20440;-75
2021/07/20 13:26:14;;;;;;;11.50;9.20;;;;;;;;;;5114687;28;20483;-76
2021/07/20 13:28:41;;;;;;;12.77;10.53;;;;;;;;;;5115123;28;20791;-75
2021/07/20 13:31:09;;;;;;;10.50;9.23;;;;;;;;;;5114595;28;20456;-76
2021/07/20 13:33:38;;;;;;;10.40;9.30;;;;;;;;;;5116193;28;20450;-76
2021/07/20 13:36:06;;;;;;;12.40;10.07;;;;;;;;;;5115374;28;20438;-76
2021/07/20 13:38:34;;;;;;;11.93;9.70;;;;;;;;;;5115794;28;20469;-76
2021/07/20 13:41:02;;;;;;;12.00;9.83;;;;;;;;;;5114669;28;20602;-75
2021/07/20 13:43:31;;;;;;;12.77;10.23;;;;;;;;;;5115264;28;20526;-76
2021/07/20 13:45:59;;;;;;;10.50;9.50;;;;;;;;;;5115185;28;20514;-76
2021/07/20 13:48:27;;;;;;;10.33;9.23;;;;;;;;;;5114996;28;20443;-76
2021/07/20 13:50:58;;;;;;;13.07;9.63;;;;;;;;;;5115315;28;20450;-76
2021/07/20 13:53:28;;;;;;;10.60;9.50;;;;;;;;;;5115329;28;20803;-76
2021/07/20 13:56:04;;;;;;;13.47;9.73;;;;;;;;;;5115503;28;20431;-76
2021/07/20 13:58:32;;;;;;;10.93;9.33;;;;;;;;;;5115156;28;20525;-76
2021/07/20 14:01:00;;;;;;;12.07;10.10;;;;;;;;;;5114311;28;20560;-75
2021/07/20 14:03:29;;;;;;;11.23;9.80;;;;;;;;;;5115132;27;20427;-76
2021/07/20 14:05:58;;;;;;;11.83;9.17;;;;;;;;;;5114930;28;21068;-76
2021/07/20 14:08:26;;;;;;;10.80;9.70;;;;;;;;;;5115024;28;20470;-75
2021/07/20 14:10:56;;;;;;;12.60;9.93;;;;;;;;;;5114301;28;20447;-76
2021/07/20 14:13:24;;;;;;;10.27;9.27;;;;;;;;;;5113975;28;20458;-75
2021/07/20 14:15:51;;;;;;;11.20;9.10;;;;;;;;;;5114981;28;20491;-76
2021/07/20 14:18:18;;;;;;;11.67;10.10;;;;;;;;;;5114266;28;20437;-76
2021/07/20 14:20:47;;;;;;;8.93;8.03;;;;;;;;;;5114589;28;20511;-76
2021/07/20 14:23:15;;;;;;;9.37;8.43;;;;;;;;;;5113871;28;20435;-76